Time;durP1;ratioP1;P1;durP2;ratioP2;P2;SDS_P1;SDS_P2;PMS_P1;PMS_P2;Temp;Humidity;BMP_temperature;BMP_pressure;BME280_temperature;BME280_humidity;BME280_pressure;Samples;Min_cycle;Max_cycle;Signal;HPM_P1;HPM_P2
2021/09/20 00:00:46;;;;;;;5.82;3.95;;;;;;;14.75;68.13;101910.94;5050113;28;20387;-60
2021/09/20 00:03:11;;;;;;;6.50;4.10;;;;;;;14.71;67.72;101904.88;5050628;28;20052;-60
2021/09/20 00:05:37;;;;;;;5.90;4.15;;;;;;;14.68;68.40;101904.13;5050459;28;20315;-63
2021/09/20 00:08:03;;;;;;;6.55;4.30;;;;;;;14.68;68.95;101906.81;5049628;28;20021;-70
2021/09/20 00:10:29;;;;;;;6.30;3.95;;;;;;;14.69;68.68;101913.88;5049731;28;20036;-60
2021/09/20 00:12:54;;;;;;;7.47;4.40;;;;;;;14.73;68.97;101907.47;5049559;28;20021;-64
2021/09/20 00:15:20;;;;;;;5.55;3.95;;;;;;;14.71;68.85;101912.00;5050297;28;20029;-60
2021/09/20 00:17:45;;;;;;;6.22;4.10;;;;;;;14.68;68.56;101902.34;5049661;28;20036;-62
2021/09/20 00:20:12;;;;;;;7.20;4.20;;;;;;;14.67;69.17;101903.28;5049364;28;20352;-61
2021/09/20 00:22:38;;;;;;;9.55;4.47;;;;;;;14.68;69.41;101904.13;5048223;28;20037;-69
2021/09/20 00:25:04;;;;;;;7.70;4.68;;;;;;;14.66;69.25;101903.34;5049440;28;20036;-60
2021/09/20 00:27:29;;;;;;;5.47;3.88;;;;;;;14.63;69.02;101909.66;5049151;28;20112;-66
2021/09/20 00:29:55;;;;;;;6.78;4.10;;;;;;;14.57;69.41;101912.59;5049482;28;20460;-61
2021/09/20 00:32:20;;;;;;;6.63;4.10;;;;;;;14.54;69.19;101918.94;5049099;28;20151;-62
2021/09/20 00:34:45;;;;;;;6.25;4.05;;;;;;;14.50;69.59;101929.78;5049735;28;20020;-60
2021/09/20 00:37:11;;;;;;;8.23;4.60;;;;;;;14.43;69.80;101926.53;5049490;28;20314;-60
2021/09/20 00:39:37;;;;;;;9.05;4.85;;;;;;;14.37;69.59;101930.34;5049360;28;20029;-60
2021/09/20 00:42:03;;;;;;;7.65;4.45;;;;;;;14.32;69.96;101921.69;5050367;28;20024;-60
2021/09/20 00:44:29;;;;;;;7.25;4.90;;;;;;;14.35;69.78;101921.53;5049367;28;20104;-60
2021/09/20 00:46:54;;;;;;;8.05;4.85;;;;;;;14.40;69.15;101934.66;5049052;28;20100;-60
2021/09/20 00:49:19;;;;;;;9.07;5.00;;;;;;;14.44;69.27;101925.59;5049198;28;20020;-59
2021/09/20 00:51:45;;;;;;;8.88;4.90;;;;;;;14.45;69.16;101924.69;5049381;28;20025;-60
2021/09/20 00:54:10;;;;;;;7.15;4.43;;;;;;;14.45;69.17;101922.00;5049575;28;20033;-67
2021/09/20 00:56:36;;;;;;;6.35;4.50;;;;;;;14.46;68.87;101928.19;5049440;28;20104;-61
2021/09/20 00:59:02;;;;;;;7.47;4.50;;;;;;;14.42;68.57;101938.13;5048329;28;20035;-60
2021/09/20 01:01:27;;;;;;;7.80;4.82;;;;;;;14.37;68.73;101934.78;5049201;28;20440;-66
2021/09/20 01:03:53;;;;;;;9.18;4.72;;;;;;;14.33;69.09;101923.38;5056764;28;20032;-62
2021/09/20 01:06:18;;;;;;;9.98;5.72;;;;;;;14.26;69.02;101932.59;5049203;28;20036;-60
2021/09/20 01:08:44;;;;;;;8.25;4.78;;;;;;;14.23;69.21;101930.94;5048327;28;20045;-60
2021/09/20 01:11:10;;;;;;;7.20;4.72;;;;;;;14.20;69.00;101925.72;5049019;28;20123;-60
2021/09/20 01:13:35;;;;;;;10.02;4.82;;;;;;;14.15;68.70;101921.53;5046881;28;20033;-65
2021/09/20 01:16:00;;;;;;;7.32;4.75;;;;;;;14.07;68.43;101917.38;5048413;28;20424;-60
2021/09/20 01:18:26;;;;;;;7.53;4.90;;;;;;;14.03;68.42;101921.13;5048557;28;20118;-60
2021/09/20 01:20:51;;;;;;;7.97;4.60;;;;;;;13.97;68.18;101933.81;5031181;28;20492;-60
2021/09/20 01:23:19;;;;;;;6.40;4.25;;;;;;;13.93;68.24;101925.09;5048809;28;20041;-62
2021/09/20 01:25:44;;;;;;;6.40;4.13;;;;;;;13.87;68.69;101923.53;5048440;28;20021;-60
2021/09/20 01:28:10;;;;;;;6.85;4.25;;;;;;;13.79;68.57;101928.31;5048153;28;20082;-61
2021/09/20 01:30:35;;;;;;;6.32;4.03;;;;;;;13.71;69.27;101939.28;5048502;28;20029;-61
2021/09/20 01:33:01;;;;;;;8.38;4.30;;;;;;;13.73;68.93;101933.88;5048558;28;20093;-60
2021/09/20 01:35:27;;;;;;;5.45;3.65;;;;;;;13.74;68.35;101931.16;5048189;28;20113;-60
2021/09/20 01:37:53;;;;;;;6.10;3.97;;;;;;;13.74;68.18;101932.97;5048783;28;20017;-62
2021/09/20 01:40:19;;;;;;;5.32;3.60;;;;;;;13.73;68.68;101923.25;5047889;28;20039;-63
2021/09/20 01:42:45;;;;;;;7.35;3.90;;;;;;;13.75;68.53;101922.25;5048411;28;20064;-61
2021/09/20 01:45:12;;;;;;;5.57;3.60;;;;;;;13.76;68.59;101923.13;5049136;28;20132;-60
2021/09/20 01:47:37;;;;;;;6.72;3.97;;;;;;;13.77;67.96;101930.16;5048130;28;20457;-61
2021/09/20 01:50:03;;;;;;;7.43;4.20;;;;;;;13.74;67.58;101920.50;5048013;28;20072;-60
2021/09/20 01:52:29;;;;;;;6.32;3.90;;;;;;;13.67;67.80;101931.47;5048044;28;20105;-60
2021/09/20 01:54:55;;;;;;;6.93;3.95;;;;;;;13.64;68.90;101921.81;5048763;28;20449;-60
2021/09/20 01:57:23;;;;;;;5.78;4.00;;;;;;;13.64;68.45;101926.28;5048231;28;20104;-60
2021/09/20 01:59:52;;;;;;;6.85;4.15;;;;;;;13.60;68.37;101931.72;5048344;28;20086;-63
2021/09/20 02:02:17;;;;;;;5.80;3.92;;;;;;;13.62;67.47;101936.13;5048225;28;20057;-60
2021/09/20 02:04:43;;;;;;;7.13;4.25;;;;;;;13.62;67.83;101936.13;5048057;28;20029;-60
2021/09/20 02:07:08;;;;;;;7.13;4.13;;;;;;;13.66;68.12;101930.63;5048324;28;20045;-60
2021/09/20 02:09:34;;;;;;;7.00;4.50;;;;;;;13.68;67.22;101935.88;5048144;28;20365;-60
2021/09/20 02:11:59;;;;;;;7.15;4.40;;;;;;;13.66;67.50;101943.03;5047769;28;20140;-61
2021/09/20 02:14:24;;;;;;;7.07;4.25;;;;;;;13.71;67.46;101951.75;5047496;28;20118;-60
2021/09/20 02:16:50;;;;;;;7.95;4.53;;;;;;;13.75;66.73;101945.34;5046562;28;20111;-63
2021/09/20 02:19:15;;;;;;;7.50;4.30;;;;;;;13.82;66.60;101954.81;5048150;28;20025;-60
2021/09/20 02:21:41;;;;;;;6.70;4.15;;;;;;;13.85;66.44;101953.81;5047661;28;20096;-60
2021/09/20 02:24:06;;;;;;;6.45;4.22;;;;;;;13.85;66.68;101951.16;5047710;28;20098;-60
2021/09/20 02:26:31;;;;;;;6.25;4.10;;;;;;;13.89;66.28;101952.78;5047517;28;20025;-60
2021/09/20 02:28:57;;;;;;;5.90;4.00;;;;;;;13.93;66.57;101952.56;5048181;28;20362;-62
2021/09/20 02:31:22;;;;;;;7.85;4.30;;;;;;;13.98;65.68;101952.41;5047685;28;20037;-60
2021/09/20 02:33:48;;;;;;;6.95;4.30;;;;;;;13.99;65.85;101948.81;5047878;28;20378;-61
2021/09/20 02:36:13;;;;;;;9.32;4.53;;;;;;;14.00;65.86;101947.88;5047536;28;20083;-60
2021/09/20 02:38:39;;;;;;;6.55;4.18;;;;;;;13.98;65.70;101947.06;5047837;28;20095;-60
2021/09/20 02:41:05;;;;;;;9.25;4.38;;;;;;;13.98;65.77;101955.06;5048008;28;20051;-64
2021/09/20 02:43:31;;;;;;;7.40;4.70;;;;;;;14.03;65.37;101969.06;5047563;28;20334;-64
2021/09/20 02:45:56;;;;;;;7.15;4.32;;;;;;;13.99;65.94;101975.44;5047581;28;20029;-61
2021/09/20 02:48:22;;;;;;;6.20;4.30;;;;;;;13.98;65.77;101970.16;5047827;28;20037;-60
2021/09/20 02:50:48;;;;;;;7.60;4.55;;;;;;;13.87;65.68;101974.13;5051909;28;20079;-61
2021/09/20 02:53:14;;;;;;;7.38;4.82;;;;;;;13.87;65.20;101974.13;5050963;28;20029;-60
2021/09/20 02:55:40;;;;;;;8.40;4.68;;;;;;;13.82;65.50;101985.91;5051827;28;20342;-60
2021/09/20 02:58:05;;;;;;;6.85;4.38;;;;;;;13.76;66.09;101979.91;5051115;28;20422;-61
2021/09/20 03:00:31;;;;;;;8.02;4.63;;;;;;;13.74;66.60;101981.75;5051752;28;20028;-60
2021/09/20 03:02:56;;;;;;;10.50;5.30;;;;;;;13.75;66.35;101980.81;5050335;28;20037;-60
2021/09/20 03:05:21;;;;;;;7.40;4.60;;;;;;;13.75;66.90;101991.47;5051396;28;20393;-60
2021/09/20 03:07:47;;;;;;;6.80;4.55;;;;;;;13.79;66.69;101986.03;5050920;28;20455;-61
2021/09/20 03:10:12;;;;;;;6.90;4.72;;;;;;;13.79;66.64;101984.22;5051292;28;20040;-61
2021/09/20 03:12:38;;;;;;;9.43;4.80;;;;;;;13.75;67.26;101988.81;5050702;28;20121;-60
2021/09/20 03:15:04;;;;;;;7.20;4.85;;;;;;;13.71;68.70;102000.50;5051571;28;20097;-60
2021/09/20 03:17:29;;;;;;;7.88;5.07;;;;;;;13.65;68.47;102003.41;5052042;28;20025;-60
2021/09/20 03:19:54;;;;;;;8.80;5.15;;;;;;;13.63;68.63;101989.28;5050580;28;20036;-59
2021/09/20 03:22:20;;;;;;;7.38;4.60;;;;;;;13.67;68.26;101998.00;5050794;28;20079;-65
2021/09/20 03:24:46;;;;;;;9.18;5.07;;;;;;;13.69;68.05;101993.50;5050363;28;20152;-61
2021/09/20 03:27:11;;;;;;;8.45;4.82;;;;;;;13.69;68.47;101993.50;5050758;28;20172;-61
2021/09/20 03:29:37;;;;;;;9.10;5.10;;;;;;;13.73;67.83;101984.47;5050552;28;20041;-61
2021/09/20 03:32:02;;;;;;;8.90;5.03;;;;;;;13.71;68.31;101989.00;5050549;28;20406;-61
2021/09/20 03:34:27;;;;;;;8.23;5.00;;;;;;;13.68;67.48;101984.66;5049583;28;20068;-60
2021/09/20 03:36:53;;;;;;;7.95;4.88;;;;;;;13.65;67.63;101997.22;5050426;28;20103;-61
2021/09/20 03:39:18;;;;;;;8.70;5.68;;;;;;;13.61;67.84;101985.84;5050457;28;20041;-60
2021/09/20 03:41:43;;;;;;;8.20;4.70;;;;;;;13.59;67.53;101993.88;5050194;28;20044;-61
2021/09/20 03:44:09;;;;;;;8.52;4.82;;;;;;;13.57;67.31;101990.41;5049792;28;20076;-61
2021/09/20 03:46:34;;;;;;;9.18;5.45;;;;;;;13.53;66.81;101995.91;5050029;28;20104;-61
2021/09/20 03:49:00;;;;;;;9.48;5.15;;;;;;;13.49;67.07;101996.94;5049886;28;20417;-60
2021/09/20 03:51:25;;;;;;;8.48;5.00;;;;;;;13.49;66.17;102008.47;5050224;28;20361;-70
2021/09/20 03:53:50;;;;;;;8.05;5.25;;;;;;;13.51;66.50;102005.75;5050298;28;20436;-61
2021/09/20 03:56:15;;;;;;;7.43;5.10;;;;;;;13.43;66.86;102006.91;5050553;28;20032;-61
2021/09/20 03:58:41;;;;;;;8.82;5.22;;;;;;;13.40;67.05;102022.09;5050647;28;20032;-68
2021/09/20 04:01:06;;;;;;;8.48;5.20;;;;;;;13.36;67.26;102016.03;5048849;28;20033;-61
2021/09/20 04:03:33;;;;;;;8.50;5.10;;;;;;;13.37;66.89;102015.09;5050119;28;20094;-66
2021/09/20 04:05:58;;;;;;;9.40;4.97;;;;;;;13.35;66.16;102024.03;5050827;28;20059;-68
2021/09/20 04:08:28;;;;;;;7.13;4.55;;;;;;;13.31;66.28;102023.28;5050432;28;20040;-61
2021/09/20 04:10:54;;;;;;;9.35;4.82;;;;;;;13.27;66.53;102024.31;5050588;28;20075;-61
2021/09/20 04:13:19;;;;;;;9.07;5.28;;;;;;;13.32;66.40;102033.00;5065345;28;20177;-61
2021/09/20 04:15:44;;;;;;;7.78;5.30;;;;;;;13.38;65.97;102022.16;5070276;28;20372;-72
2021/09/20 04:18:10;;;;;;;9.35;5.10;;;;;;;13.33;66.67;102024.09;5069882;28;20039;-68
2021/09/20 04:20:35;;;;;;;8.52;5.43;;;;;;;13.38;66.34;102021.31;5069681;28;20107;-72
2021/09/20 04:23:01;;;;;;;10.63;5.05;;;;;;;13.38;66.43;102031.97;5057155;28;20061;-71
2021/09/20 04:25:26;;;;;;;8.77;5.35;;;;;;;13.37;65.64;102030.22;5049947;28;20063;-61
2021/09/20 04:27:51;;;;;;;9.45;5.10;;;;;;;13.32;65.14;102032.16;5050362;28;20041;-73
2021/09/20 04:30:17;;;;;;;8.88;5.40;;;;;;;13.23;66.06;102030.69;5049954;28;20124;-76
2021/09/20 04:32:43;;;;;;;7.43;5.20;;;;;;;13.11;66.65;102045.31;5049247;28;20033;-61
2021/09/20 04:35:09;;;;;;;8.98;5.22;;;;;;;13.04;66.98;102052.63;5049499;28;20055;-61
2021/09/20 04:37:35;;;;;;;9.13;5.53;;;;;;;12.99;67.99;102051.91;5049605;28;20048;-61
2021/09/20 04:40:02;;;;;;;9.55;5.70;;;;;;;13.00;67.50;102045.69;5049637;28;20422;-70
2021/09/20 04:42:27;;;;;;;9.32;5.72;;;;;;;13.05;67.70;102056.16;5049333;28;20384;-63
2021/09/20 04:44:53;;;;;;;10.27;5.97;;;;;;;13.07;67.79;102055.19;5049259;28;20048;-63
2021/09/20 04:47:18;;;;;;;9.38;5.10;;;;;;;13.11;67.43;102061.28;5047586;28;20040;-61
2021/09/20 04:49:44;;;;;;;9.93;5.63;;;;;;;13.05;67.18;102067.66;5049310;28;20033;-61
2021/09/20 04:52:10;;;;;;;10.30;5.75;;;;;;;12.96;66.75;102065.34;5049330;28;20107;-62
2021/09/20 04:54:35;;;;;;;10.43;5.60;;;;;;;12.93;67.34;102062.81;5048793;28;20104;-61
2021/09/20 04:57:01;;;;;;;7.97;5.40;;;;;;;12.93;67.33;102062.81;5049095;28;20052;-66
2021/09/20 04:59:26;;;;;;;10.07;5.53;;;;;;;12.92;67.16;102067.22;5049018;28;20033;-61
2021/09/20 05:01:51;;;;;;;8.65;5.35;;;;;;;12.87;66.75;102077.16;5049262;28;20053;-75
2021/09/20 05:04:17;;;;;;;10.43;5.80;;;;;;;12.87;67.25;102071.00;5048663;28;20096;-61
2021/09/20 05:06:42;;;;;;;9.30;5.30;;;;;;;12.85;66.55;102076.38;5048803;28;20406;-67
2021/09/20 05:09:09;;;;;;;8.15;5.32;;;;;;;12.87;66.79;102076.31;5049327;28;20037;-61
2021/09/20 05:11:36;;;;;;;9.88;5.30;;;;;;;12.92;66.04;102080.53;5046634;28;20487;-61
2021/09/20 05:14:01;;;;;;;8.30;5.22;;;;;;;12.95;66.07;102082.22;5046885;28;20374;-61
2021/09/20 05:16:27;;;;;;;8.63;5.13;;;;;;;13.00;66.44;102082.91;5048455;28;20047;-71
2021/09/20 05:18:52;;;;;;;8.25;5.25;;;;;;;12.90;65.92;102086.81;5049076;28;20025;-67
2021/09/20 05:21:17;;;;;;;9.80;5.40;;;;;;;12.86;66.68;102095.81;5048573;28;20025;-61
2021/09/20 05:23:44;;;;;;;8.73;5.70;;;;;;;12.85;66.36;102087.00;5047976;28;20387;-62
2021/09/20 05:26:11;;;;;;;7.30;4.60;;;;;;;12.89;66.47;102095.72;5048449;28;20021;-61
2021/09/20 05:28:36;;;;;;;8.48;4.97;;;;;;;12.88;66.39;102099.31;5048620;28;20477;-63
2021/09/20 05:31:02;;;;;;;8.68;5.20;;;;;;;12.89;66.19;102096.59;5048791;28;20033;-65
2021/09/20 05:33:30;;;;;;;9.65;5.25;;;;;;;12.88;65.67;102097.50;5048338;28;20036;-71
2021/09/20 05:35:56;;;;;;;8.23;4.97;;;;;;;12.89;66.22;102109.00;5048446;28;20043;-61
2021/09/20 05:38:21;;;;;;;10.63;5.57;;;;;;;12.89;66.06;102101.91;5047930;28;20021;-60
2021/09/20 05:40:46;;;;;;;12.40;5.72;;;;;;;12.93;65.62;102105.34;5048810;28;20025;-62
2021/09/20 05:43:12;;;;;;;10.20;5.45;;;;;;;12.99;65.35;102109.56;5047509;28;20113;-64
2021/09/20 05:45:37;;;;;;;8.40;5.38;;;;;;;12.98;65.90;102111.38;5048100;28;20438;-61
2021/09/20 05:48:03;;;;;;;8.35;5.28;;;;;;;12.93;65.30;102124.81;5048068;28;20028;-61
2021/09/20 05:50:28;;;;;;;8.15;5.05;;;;;;;12.86;65.89;102127.72;5048231;28;20390;-71
2021/09/20 05:52:54;;;;;;;9.13;5.40;;;;;;;12.82;65.85;102126.97;5048194;28;20108;-74
2021/09/20 05:55:20;;;;;;;7.82;5.13;;;;;;;12.83;65.84;102131.34;5049561;28;20021;-62
2021/09/20 05:57:46;;;;;;;9.98;5.63;;;;;;;12.84;65.24;102134.88;5048568;28;20463;-59
2021/09/20 06:00:12;;;;;;;12.45;5.25;;;;;;;12.90;64.69;102119.59;5048903;28;20107;-61
2021/09/20 06:02:38;;;;;;;8.77;5.38;;;;;;;12.87;65.49;102132.13;5047723;28;20064;-62
2021/09/20 06:05:04;;;;;;;9.57;5.13;;;;;;;12.86;65.60;102133.91;5048891;28;20032;-61
2021/09/20 06:07:29;;;;;;;9.30;5.82;;;;;;;12.88;65.46;102139.19;5048159;28;20093;-60
2021/09/20 06:09:55;;;;;;;8.00;5.45;;;;;;;12.89;65.13;102135.59;5047996;28;20025;-60
2021/09/20 06:12:20;;;;;;;8.38;5.20;;;;;;;12.86;65.56;102141.88;5047970;28;20055;-63
2021/09/20 06:14:45;;;;;;;8.23;5.35;;;;;;;12.93;65.25;102142.56;5047734;28;20081;-61
2021/09/20 06:17:11;;;;;;;8.32;5.15;;;;;;;12.89;64.50;102149.75;5048098;28;20115;-61
2021/09/20 06:19:36;;;;;;;10.52;5.78;;;;;;;12.92;64.92;102151.44;5042335;28;20341;-64
2021/09/20 06:22:01;;;;;;;10.63;5.43;;;;;;;13.01;64.32;102150.28;5038640;28;20122;-60
2021/09/20 06:24:27;;;;;;;9.23;5.20;;;;;;;12.98;64.93;102159.22;5048755;28;20048;-60
2021/09/20 06:26:52;;;;;;;8.95;5.85;;;;;;;13.01;64.89;102153.78;5047677;28;20056;-62
2021/09/20 06:29:18;;;;;;;8.20;5.38;;;;;;;13.05;64.62;102152.75;5052371;28;20052;-59
2021/09/20 06:31:43;;;;;;;8.15;5.07;;;;;;;13.04;64.63;102160.78;5047957;28;20127;-60
2021/09/20 06:34:09;;;;;;;9.93;5.53;;;;;;;13.05;64.92;102154.56;5049509;28;20069;-59
2021/09/20 06:36:35;;;;;;;8.88;5.72;;;;;;;13.11;64.94;102157.00;5052203;28;20021;-61
2021/09/20 06:39:01;;;;;;;8.10;5.55;;;;;;;13.14;64.41;102159.56;5051849;28;20445;-60
2021/09/20 06:41:26;;;;;;;9.50;5.25;;;;;;;13.10;64.88;102160.59;5043792;28;20091;-59
2021/09/20 06:43:52;;;;;;;8.68;5.57;;;;;;;13.19;64.94;102165.59;5038702;28;20124;-59
2021/09/20 06:46:17;;;;;;;11.40;5.65;;;;;;;13.30;64.71;102159.91;5050910;28;20036;-60
2021/09/20 06:48:43;;;;;;;8.23;5.28;;;;;;;13.33;64.98;102158.94;5051539;28;20028;-61
2021/09/20 06:51:09;;;;;;;8.38;5.97;;;;;;;13.28;65.55;102159.94;5052381;28;20032;-62
2021/09/20 06:53:35;;;;;;;8.20;5.47;;;;;;;13.29;65.43;102160.81;5051937;28;20029;-62
2021/09/20 06:56:01;;;;;;;8.05;5.50;;;;;;;13.42;64.95;102167.47;5049215;28;20052;-62
2021/09/20 06:58:26;;;;;;;9.38;5.60;;;;;;;13.50;64.42;102161.88;5051965;28;20033;-62
2021/09/20 07:00:51;;;;;;;8.43;5.55;;;;;;;13.67;63.92;102163.94;5048838;28;20430;-59
2021/09/20 07:03:16;;;;;;;8.55;5.50;;;;;;;13.75;62.79;102158.31;5051086;28;20123;-61
2021/09/20 07:05:42;;;;;;;11.15;5.97;;;;;;;13.81;62.96;102163.44;5051397;28;20390;-61
2021/09/20 07:08:07;;;;;;;9.32;5.40;;;;;;;13.86;63.64;102158.81;5048162;28;20388;-65
2021/09/20 07:10:33;;;;;;;11.20;5.85;;;;;;;14.03;62.20;102163.47;5050948;28;20031;-67
2021/09/20 07:12:58;;;;;;;9.52;5.68;;;;;;;13.99;61.77;102159.19;5051666;28;20445;-73
2021/09/20 07:15:24;;;;;;;9.48;5.70;;;;;;;14.02;61.51;102163.53;5051921;28;20080;-58
2021/09/20 07:17:49;;;;;;;10.82;5.75;;;;;;;14.09;61.44;102170.34;5051492;28;20166;-62
2021/09/20 07:20:15;;;;;;;8.43;5.65;;;;;;;14.34;60.14;102172.94;5048248;28;20080;-61
2021/09/20 07:22:40;;;;;;;10.95;5.78;;;;;;;14.61;59.64;102177.25;5051707;28;20111;-68
2021/09/20 07:25:06;;;;;;;10.60;5.28;;;;;;;14.83;57.62;102185.25;5051073;28;20167;-66
2021/09/20 07:27:32;;;;;;;7.80;5.43;;;;;;;14.97;57.17;102188.19;5052424;28;20453;-66
2021/09/20 07:29:57;;;;;;;9.13;5.90;;;;;;;14.96;57.17;102189.16;5049095;28;20112;-65
2021/09/20 07:32:23;;;;;;;8.90;5.90;;;;;;;14.88;56.17;102185.94;5049732;28;20045;-59
2021/09/20 07:34:48;;;;;;;9.15;5.80;;;;;;;14.93;57.16;102186.59;5041296;28;20037;-61
2021/09/20 07:37:15;;;;;;;10.02;6.03;;;;;;;14.90;56.50;102192.94;5042330;28;20056;-63
2021/09/20 07:39:41;;;;;;;7.85;5.68;;;;;;;14.84;56.40;102195.84;5031657;28;20419;-76
2021/09/20 07:42:08;;;;;;;9.82;6.15;;;;;;;14.77;57.69;102198.84;5046759;28;20025;-61
2021/09/20 07:44:33;;;;;;;10.15;6.22;;;;;;;14.72;58.66;102202.56;5047532;28;20480;-63
2021/09/20 07:46:59;;;;;;;11.50;6.38;;;;;;;14.73;58.23;102209.63;5045722;28;20025;-59
2021/09/20 07:49:25;;;;;;;9.48;6.15;;;;;;;14.81;58.58;102200.44;5050723;28;20033;-63
2021/09/20 07:51:50;;;;;;;10.30;6.07;;;;;;;14.90;58.12;102203.59;5049479;28;20056;-59
2021/09/20 07:54:15;;;;;;;11.07;5.97;;;;;;;14.82;57.83;102211.06;5046149;28;20051;-61
2021/09/20 07:56:41;;;;;;;10.00;5.90;;;;;;;14.71;58.27;102218.63;5037322;28;20067;-61
2021/09/20 07:59:06;;;;;;;9.25;5.30;;;;;;;14.66;58.13;102217.94;5045803;28;20033;-62
2021/09/20 08:01:31;;;;;;;9.23;5.53;;;;;;;14.69;58.88;102217.81;5042357;28;20033;-59
2021/09/20 08:03:57;;;;;;;9.32;5.57;;;;;;;14.64;60.01;102226.00;5045778;28;20035;-64
2021/09/20 08:06:23;;;;;;;10.57;5.85;;;;;;;14.68;59.86;102221.41;5050819;28;20057;-64
2021/09/20 08:08:49;;;;;;;10.40;6.55;;;;;;;14.77;59.25;102217.50;5051005;28;20021;-62
2021/09/20 08:11:14;;;;;;;9.15;5.78;;;;;;;14.70;58.19;102222.22;5050553;28;20078;-70
2021/09/20 08:13:40;;;;;;;8.32;5.07;;;;;;;14.84;58.09;102227.84;5048701;28;20037;-66
2021/09/20 08:16:05;;;;;;;8.77;5.40;;;;;;;14.94;58.37;102232.84;5042949;28;20431;-67
2021/09/20 08:18:31;;;;;;;13.65;5.55;;;;;;;14.95;58.39;102237.22;5048250;28;20630;-69
2021/09/20 08:20:57;;;;;;;8.85;6.03;;;;;;;15.00;56.76;102238.78;5046910;28;20394;-63
2021/09/20 08:23:23;;;;;;;9.77;5.95;;;;;;;15.10;57.02;102235.72;5049120;28;20059;-62
2021/09/20 08:25:49;;;;;;;13.32;6.43;;;;;;;15.10;57.10;102236.56;5051873;28;20449;-72
2021/09/20 08:28:15;;;;;;;9.70;6.78;;;;;;;14.90;56.53;102238.28;5044179;28;20083;-61
2021/09/20 08:30:40;;;;;;;9.98;6.63;;;;;;;14.89;56.25;102252.53;5049574;28;20021;-63
2021/09/20 08:33:06;;;;;;;13.07;7.07;;;;;;;15.00;55.61;102253.91;5049082;28;20386;-62
2021/09/20 08:35:31;;;;;;;11.35;6.50;;;;;;;15.05;55.68;102249.25;5050514;28;20321;-62
2021/09/20 08:37:57;;;;;;;10.38;6.82;;;;;;;15.19;55.15;102252.22;5049573;28;20114;-68
2021/09/20 08:40:23;;;;;;;10.15;7.18;;;;;;;15.22;54.06;102259.22;5049624;28;20174;-59
2021/09/20 08:42:49;;;;;;;10.80;7.68;;;;;;;15.31;53.99;102258.84;5048431;28;20029;-69
2021/09/20 08:45:18;;;;;;;9.75;7.38;;;;;;;15.36;52.69;102262.19;5052218;28;20033;-60
2021/09/20 08:47:46;;;;;;;10.15;7.22;;;;;;;15.46;52.29;102261.78;5051915;28;20040;-71
2021/09/20 08:50:14;;;;;;;12.90;7.35;;;;;;;15.38;52.46;102264.78;5051208;28;20393;-71
2021/09/20 08:52:40;;;;;;;11.70;8.00;;;;;;;15.18;52.29;102266.50;5050301;28;20130;-70
2021/09/20 08:55:07;;;;;;;10.40;7.00;;;;;;;15.35;53.64;102265.78;5049273;28;20125;-69
2021/09/20 08:57:33;;;;;;;11.63;7.60;;;;;;;15.49;53.91;102256.34;5043855;28;20029;-72
2021/09/20 08:59:59;;;;;;;10.60;7.85;;;;;;;15.81;52.71;102273.63;5049638;28;20534;-63
2021/09/20 09:02:25;;;;;;;9.63;7.38;;;;;;;15.96;52.48;102269.44;5050921;28;20072;-66
2021/09/20 09:04:50;;;;;;;9.80;7.28;;;;;;;16.87;49.94;102257.16;5050497;28;20359;-60
2021/09/20 09:07:19;;;;;;;10.43;7.25;;;;;;;17.83;47.03;102260.38;5051310;28;20052;-78
2021/09/20 09:09:50;;;;;;;12.95;8.18;;;;;;;18.84;42.51;102265.66;5051611;28;20021;-60
2021/09/20 09:12:23;;;;;;;12.33;6.73;;;;;;;19.64;40.39;102262.78;5050612;28;20055;-70
2021/09/20 09:14:58;;;;;;;8.50;6.50;;;;;;;20.47;37.00;102267.53;5048252;28;20025;-75
2021/09/20 09:17:28;;;;;;;8.43;6.35;;;;;;;20.75;38.15;102272.03;5038630;28;20029;-67
2021/09/20 09:19:55;;;;;;;9.57;6.78;;;;;;;20.77;37.62;102274.63;5050339;28;20089;-62
2021/09/20 09:22:37;;;;;;;10.38;7.10;;;;;;;21.04;37.13;102271.94;5050555;28;20041;-74
2021/09/20 09:25:05;;;;;;;11.32;7.75;;;;;;;21.03;35.84;102280.13;5050993;28;20111;-73
2021/09/20 09:27:36;;;;;;;10.15;6.75;;;;;;;21.13;37.62;102269.59;5039606;28;20129;-71
2021/09/20 09:30:12;;;;;;;9.52;7.05;;;;;;;21.09;36.47;102282.41;5046348;28;20128;-61
2021/09/20 09:32:39;;;;;;;12.20;7.50;;;;;;;20.58;38.24;102273.09;5039107;28;20148;-61
2021/09/20 09:35:07;;;;;;;9.93;6.82;;;;;;;20.55;37.64;102280.50;5050191;28;20120;-61
2021/09/20 09:37:37;;;;;;;11.68;7.32;;;;;;;20.61;38.38;102275.59;5041121;28;20028;-60
2021/09/20 09:40:07;;;;;;;9.30;7.30;;;;;;;20.34;39.00;102286.28;5042796;28;20040;-61
2021/09/20 09:42:32;;;;;;;10.00;7.97;;;;;;;20.69;38.35;102288.56;5049642;28;20040;-67
2021/09/20 09:45:11;;;;;;;10.02;7.50;;;;;;;20.75;37.42;102287.31;5049453;28;20154;-68
2021/09/20 09:47:37;;;;;;;12.38;7.85;;;;;;;20.71;37.61;102283.09;5049763;28;20121;-59
2021/09/20 09:50:22;;;;;;;9.15;6.40;;;;;;;21.03;38.60;102278.28;5050104;28;20045;-67
2021/09/20 09:52:51;;;;;;;9.85;6.53;;;;;;;21.93;36.45;102283.00;5050589;28;20033;-61
2021/09/20 09:55:17;;;;;;;13.07;6.70;;;;;;;22.29;36.10;102283.19;5037122;28;20059;-68
2021/09/20 09:57:42;;;;;;;11.35;7.57;;;;;;;22.04;36.14;102279.56;5048993;28;20176;-61
2021/09/20 10:00:16;;;;;;;8.80;6.47;;;;;;;22.69;35.50;102286.59;5047462;28;20095;-61
2021/09/20 10:02:43;;;;;;;9.43;7.18;;;;;;;22.42;35.78;102295.72;5042031;28;20036;-63
2021/09/20 10:05:12;;;;;;;9.85;6.55;;;;;;;22.70;35.54;102279.38;5049446;28;20036;-61
2021/09/20 10:07:38;;;;;;;12.68;7.07;;;;;;;22.95;35.13;102281.06;5049597;28;20400;-65
2021/09/20 10:10:10;;;;;;;9.80;6.65;;;;;;;23.25;33.67;102277.09;5044948;28;20442;-62
2021/09/20 10:12:37;;;;;;;11.82;7.10;;;;;;;23.16;33.86;102278.66;5041198;28;20424;-63
2021/09/20 10:15:04;;;;;;;9.85;6.82;;;;;;;21.99;36.42;102281.72;5031046;28;20021;-61
2021/09/20 10:17:30;;;;;;;8.88;5.90;;;;;;;22.53;36.50;102277.88;5051905;28;20059;-76
2021/09/20 10:19:57;;;;;;;10.23;6.53;;;;;;;22.63;35.58;102289.72;5051314;28;20548;-62
2021/09/20 10:22:23;;;;;;;11.90;6.57;;;;;;;22.55;35.51;102295.69;5052568;28;20021;-59
2021/09/20 10:24:51;;;;;;;9.70;6.28;;;;;;;22.90;35.12;102285.97;5038221;28;20128;-62
2021/09/20 10:27:19;;;;;;;7.53;5.95;;;;;;;23.66;33.58;102291.94;5050735;28;20102;-63
2021/09/20 10:30:01;;;;;;;9.73;6.40;;;;;;;23.37;34.13;102291.50;5045357;28;20106;-62
2021/09/20 10:32:28;;;;;;;9.02;5.95;;;;;;;23.14;35.96;102290.53;5031948;28;20037;-65
2021/09/20 10:35:23;;;;;;;9.18;6.28;;;;;;;23.69;34.02;102285.44;5047266;28;20074;-62
2021/09/20 10:37:50;;;;;;;9.15;6.18;;;;;;;24.32;33.26;102288.59;5045015;28;20025;-63
2021/09/20 10:40:16;;;;;;;8.65;6.07;;;;;;;24.65;33.51;102292.25;5033458;28;20021;-62
2021/09/20 10:42:43;;;;;;;8.70;6.63;;;;;;;24.49;33.09;102283.66;5050979;28;20043;-65
2021/09/20 10:45:38;;;;;;;8.32;5.95;;;;;;;24.82;33.05;102293.59;5038970;28;20502;-71
2021/09/20 10:48:15;;;;;;;9.90;6.47;;;;;;;25.05;30.83;102296.22;5038826;28;20076;-73
2021/09/20 10:50:59;;;;;;;8.57;6.50;;;;;;;24.74;31.96;102306.06;5048446;28;20131;-58
2021/09/20 10:53:29;;;;;;;7.47;5.65;;;;;;;24.96;31.70;102288.88;5047215;28;20040;-58
2021/09/20 10:56:04;;;;;;;9.07;6.67;;;;;;;25.15;31.16;102290.91;5048661;28;20029;-61
2021/09/20 10:58:30;;;;;;;8.88;6.20;;;;;;;25.60;30.24;102282.59;5028766;28;20371;-64
2021/09/20 11:01:11;;;;;;;9.35;6.28;;;;;;;25.31;30.86;102294.03;5028626;28;20025;-63
2021/09/20 11:03:48;;;;;;;7.97;6.03;;;;;;;25.31;29.86;102294.03;5033561;28;20035;-62
2021/09/20 11:06:22;;;;;;;9.38;5.47;;;;;;;25.73;30.77;102295.06;5035732;28;20048;-61
2021/09/20 11:09:02;;;;;;;7.85;5.82;;;;;;;25.66;29.58;102290.16;5049341;28;20017;-62
2021/09/20 11:11:47;;;;;;;7.47;5.90;;;;;;;25.43;31.05;102294.00;5050455;28;20121;-71
2021/09/20 11:14:15;;;;;;;10.30;6.22;;;;;;;25.61;29.45;102299.72;5053145;28;20124;-65
2021/09/20 11:16:59;;;;;;;9.85;5.82;;;;;;;25.34;29.37;102299.19;5053201;28;20029;-64
2021/09/20 11:19:28;;;;;;;7.95;5.68;;;;;;;25.41;29.56;102305.00;5053725;28;20075;-62
2021/09/20 11:22:05;;;;;;;9.00;5.88;;;;;;;25.52;30.42;102294.09;5036934;28;20161;-57